sensor_id;sensor_type;location;lat;lon;timestamp;pressure;altitude;pressure_sealevel;temperature;humidity
73205;BME280;61413;-27.702;153.216;2022-08-04T00:01:34;101858.03;;;16.62;40.57
73205;BME280;61413;-27.702;153.216;2022-08-04T00:03:57;101859.26;;;16.74;40.57
73205;BME280;61413;-27.702;153.216;2022-08-04T00:06:24;101859.19;;;16.91;40.59
73205;BME280;61413;-27.702;153.216;2022-08-04T00:09:51;101861.99;;;16.84;40.55
73205;BME280;61413;-27.702;153.216;2022-08-04T00:12:16;101863.62;;;17.44;40.34
73205;BME280;61413;-27.702;153.216;2022-08-04T00:14:45;101865.10;;;17.40;40.18
73205;BME280;61413;-27.702;153.216;2022-08-04T00:17:07;101862.65;;;17.45;40.00
73205;BME280;61413;-27.702;153.216;2022-08-04T00:19:39;101853.48;;;17.32;39.84
73205;BME280;61413;-27.702;153.216;2022-08-04T00:22:02;101851.49;;;17.44;39.61
73205;BME280;61413;-27.702;153.216;2022-08-04T00:24:27;101848.48;;;17.53;39.57
73205;BME280;61413;-27.702;153.216;2022-08-04T00:26:54;101846.36;;;17.99;39.44
73205;BME280;61413;-27.702;153.216;2022-08-04T00:29:17;101845.82;;;18.27;39.09
73205;BME280;61413;-27.702;153.216;2022-08-04T00:31:45;101841.98;;;18.60;38.82
73205;BME280;61413;-27.702;153.216;2022-08-04T00:34:14;101834.25;;;19.11;38.39
73205;BME280;61413;-27.702;153.216;2022-08-04T00:36:42;101832.55;;;19.33;38.29
73205;BME280;61413;-27.702;153.216;2022-08-04T00:39:06;101827.68;;;19.43;37.90
73205;BME280;61413;-27.702;153.216;2022-08-04T00:41:40;101816.79;;;18.97;37.91
73205;BME280;61413;-27.702;153.216;2022-08-04T00:44:16;101809.39;;;19.22;37.85
73205;BME280;61413;-27.702;153.216;2022-08-04T00:48:40;101788.66;;;19.09;37.86
73205;BME280;61413;-27.702;153.216;2022-08-04T00:50:59;101775.70;;;18.93;37.87
73205;BME280;61413;-27.702;153.216;2022-08-04T00:53:28;101763.99;;;18.97;37.66
73205;BME280;61413;-27.702;153.216;2022-08-04T00:56:02;101754.49;;;19.31;37.40
73205;BME280;61413;-27.702;153.216;2022-08-04T00:58:28;101741.85;;;19.38;37.25
73205;BME280;61413;-27.702;153.216;2022-08-04T01:00:47;101742.93;;;19.65;37.00
73205;BME280;61413;-27.702;153.216;2022-08-04T01:04:19;101744.10;;;20.05;36.87
73205;BME280;61413;-27.702;153.216;2022-08-04T01:06:48;101742.49;;;20.16;36.60
73205;BME280;61413;-27.702;153.216;2022-08-04T01:09:20;101737.52;;;20.31;36.36
73205;BME280;61413;-27.702;153.216;2022-08-04T01:11:45;101729.41;;;20.34;36.16
73205;BME280;61413;-27.702;153.216;2022-08-04T01:14:13;101724.79;;;20.14;36.61
73205;BME280;61413;-27.702;153.216;2022-08-04T01:16:26;101719.79;;;19.53;36.91
73205;BME280;61413;-27.702;153.216;2022-08-04T01:18:56;101716.16;;;19.52;36.86
73205;BME280;61413;-27.702;153.216;2022-08-04T01:26:51;101708.15;;;20.93;35.88
73205;BME280;61413;-27.702;153.216;2022-08-04T01:29:13;101699.95;;;19.91;36.23
73205;BME280;61413;-27.702;153.216;2022-08-04T01:31:56;101703.19;;;20.90;35.23
73205;BME280;61413;-27.702;153.216;2022-08-04T01:34:07;101703.64;;;20.88;35.06
73205;BME280;61413;-27.702;153.216;2022-08-04T01:36:34;101688.82;;;20.45;35.12
73205;BME280;61413;-27.702;153.216;2022-08-04T01:38:58;101688.65;;;21.10;34.58
73205;BME280;61413;-27.702;153.216;2022-08-04T01:41:26;101682.15;;;21.64;33.85
73205;BME280;61413;-27.702;153.216;2022-08-04T01:43:55;101673.53;;;21.72;33.68
73205;BME280;61413;-27.702;153.216;2022-08-04T01:46:19;101680.93;;;22.07;32.64
73205;BME280;61413;-27.702;153.216;2022-08-04T01:48:48;101676.97;;;21.49;32.51
73205;BME280;61413;-27.702;153.216;2022-08-04T01:51:16;101676.57;;;21.30;32.46
73205;BME280;61413;-27.702;153.216;2022-08-04T01:53:44;101674.24;;;21.82;31.79
73205;BME280;61413;-27.702;153.216;2022-08-04T01:56:12;101670.22;;;21.54;31.84
73205;BME280;61413;-27.702;153.216;2022-08-04T01:58:39;101664.42;;;22.37;31.21
73205;BME280;61413;-27.702;153.216;2022-08-04T02:03:54;101656.90;;;22.10;30.49
73205;BME280;61413;-27.702;153.216;2022-08-04T02:06:30;101652.18;;;22.45;29.92
73205;BME280;61413;-27.702;153.216;2022-08-04T02:08:54;101648.83;;;22.02;29.62
73205;BME280;61413;-27.702;153.216;2022-08-04T02:11:19;101638.86;;;22.16;29.61
73205;BME280;61413;-27.702;153.216;2022-08-04T02:15:50;101627.83;;;22.31;29.73
73205;BME280;61413;-27.702;153.216;2022-08-04T02:18:15;101617.16;;;21.87;29.85
73205;BME280;61413;-27.702;153.216;2022-08-04T02:20:42;101614.67;;;22.17;29.48
73205;BME280;61413;-27.702;153.216;2022-08-04T02:23:04;101610.20;;;22.52;29.37
73205;BME280;61413;-27.702;153.216;2022-08-04T02:25:31;101603.01;;;22.20;29.47
73205;BME280;61413;-27.702;153.216;2022-08-04T02:28:10;101598.88;;;22.32;29.61
73205;BME280;61413;-27.702;153.216;2022-08-04T02:30:22;101593.09;;;22.27;29.50
73205;BME280;61413;-27.702;153.216;2022-08-04T02:32:54;101593.03;;;21.81;29.88
73205;BME280;61413;-27.702;153.216;2022-08-04T02:35:18;101593.29;;;21.82;29.86
73205;BME280;61413;-27.702;153.216;2022-08-04T02:37:48;101589.06;;;21.99;29.67
73205;BME280;61413;-27.702;153.216;2022-08-04T02:40:10;101583.71;;;22.30;29.46
73205;BME280;61413;-27.702;153.216;2022-08-04T02:42:38;101584.58;;;22.35;29.35
73205;BME280;61413;-27.702;153.216;2022-08-04T02:45:06;101580.03;;;22.51;29.34
73205;BME280;61413;-27.702;153.216;2022-08-04T02:47:34;101582.21;;;22.65;29.09
73205;BME280;61413;-27.702;153.216;2022-08-04T02:50:02;101575.69;;;22.71;28.98
73205;BME280;61413;-27.702;153.216;2022-08-04T02:53:33;101566.50;;;22.64;28.89
73205;BME280;61413;-27.702;153.216;2022-08-04T02:56:02;101561.77;;;22.12;28.70
73205;BME280;61413;-27.702;153.216;2022-08-04T02:58:26;101556.81;;;22.52;28.40
73205;BME280;61413;-27.702;153.216;2022-08-04T03:00:53;101546.70;;;22.50;28.30
73205;BME280;61413;-27.702;153.216;2022-08-04T03:03:29;101535.26;;;22.50;28.31
73205;BME280;61413;-27.702;153.216;2022-08-04T03:06:12;101534.10;;;22.15;28.18
73205;BME280;61413;-27.702;153.216;2022-08-04T03:08:38;101528.39;;;22.32;28.21
73205;BME280;61413;-27.702;153.216;2022-08-04T03:12:13;101517.11;;;22.42;28.21
73205;BME280;61413;-27.702;153.216;2022-08-04T03:13:38;101510.17;;;22.42;28.17
73205;BME280;61413;-27.702;153.216;2022-08-04T03:21:23;101505.97;;;22.35;28.30
73205;BME280;61413;-27.702;153.216;2022-08-04T03:23:50;101492.18;;;22.43;28.23
73205;BME280;61413;-27.702;153.216;2022-08-04T03:26:25;101495.64;;;22.40;27.94
73205;BME280;61413;-27.702;153.216;2022-08-04T03:28:46;101500.28;;;22.30;27.83
73205;BME280;61413;-27.702;153.216;2022-08-04T03:31:09;101500.16;;;22.39;27.78
73205;BME280;61413;-27.702;153.216;2022-08-04T03:33:45;101511.90;;;22.64;27.76
73205;BME280;61413;-27.702;153.216;2022-08-04T03:36:11;101514.00;;;22.55;27.77
73205;BME280;61413;-27.702;153.216;2022-08-04T03:39:38;101513.53;;;22.10;27.68
73205;BME280;61413;-27.702;153.216;2022-08-04T03:41:01;101502.18;;;22.20;27.55
73205;BME280;61413;-27.702;153.216;2022-08-04T03:43:38;101500.71;;;22.17;27.45
73205;BME280;61413;-27.702;153.216;2022-08-04T03:50:59;101467.01;;;22.33;27.74
73205;BME280;61413;-27.702;153.216;2022-08-04T03:53:34;101461.96;;;22.13;27.77
73205;BME280;61413;-27.702;153.216;2022-08-04T03:55:55;101453.46;;;22.40;27.63
73205;BME280;61413;-27.702;153.216;2022-08-04T03:58:29;101458.47;;;22.77;27.48
73205;BME280;61413;-27.702;153.216;2022-08-04T04:00:41;101456.54;;;22.39;27.47
73205;BME280;61413;-27.702;153.216;2022-08-04T04:03:22;101454.04;;;22.40;27.36
73205;BME280;61413;-27.702;153.216;2022-08-04T04:05:49;101447.65;;;22.70;27.21
73205;BME280;61413;-27.702;153.216;2022-08-04T04:08:20;101436.55;;;22.57;27.19
73205;BME280;61413;-27.702;153.216;2022-08-04T04:10:34;101442.02;;;22.53;27.18
73205;BME280;61413;-27.702;153.216;2022-08-04T04:13:04;101445.66;;;22.56;27.21
73205;BME280;61413;-27.702;153.216;2022-08-04T04:15:30;101440.23;;;22.47;27.23
73205;BME280;61413;-27.702;153.216;2022-08-04T04:18:08;101442.98;;;21.94;27.44
73205;BME280;61413;-27.702;153.216;2022-08-04T04:20:32;101441.27;;;21.92;27.45
73205;BME280;61413;-27.702;153.216;2022-08-04T04:22:52;101435.41;;;22.13;27.70
73205;BME280;61413;-27.702;153.216;2022-08-04T04:25:11;101438.93;;;21.94;27.62
73205;BME280;61413;-27.702;153.216;2022-08-04T04:27:38;101440.63;;;22.24;27.59
73205;BME280;61413;-27.702;153.216;2022-08-04T04:30:10;101431.85;;;22.11;27.66
73205;BME280;61413;-27.702;153.216;2022-08-04T04:32:42;101429.57;;;22.12;27.66
73205;BME280;61413;-27.702;153.216;2022-08-04T04:35:09;101429.71;;;22.12;27.69
73205;BME280;61413;-27.702;153.216;2022-08-04T04:37:31;101429.94;;;21.94;27.81
73205;BME280;61413;-27.702;153.216;2022-08-04T04:39:56;101428.04;;;22.09;27.66
73205;BME280;61413;-27.702;153.216;2022-08-04T04:42:26;101430.69;;;22.10;27.68
73205;BME280;61413;-27.702;153.216;2022-08-04T04:45:19;101434.77;;;22.05;27.66
73205;BME280;61413;-27.702;153.216;2022-08-04T04:47:13;101433.42;;;21.85;27.84
73205;BME280;61413;-27.702;153.216;2022-08-04T04:49:39;101422.92;;;22.04;27.86
73205;BME280;61413;-27.702;153.216;2022-08-04T04:52:08;101420.52;;;22.09;27.92
73205;BME280;61413;-27.702;153.216;2022-08-04T04:54:36;101420.94;;;22.22;27.83
73205;BME280;61413;-27.702;153.216;2022-08-04T04:57:04;101415.35;;;22.13;27.67
73205;BME280;61413;-27.702;153.216;2022-08-04T04:59:30;101415.41;;;21.92;27.72
73205;BME280;61413;-27.702;153.216;2022-08-04T05:02:11;101416.88;;;22.14;27.69
73205;BME280;61413;-27.702;153.216;2022-08-04T05:05:05;101415.77;;;22.04;27.78
73205;BME280;61413;-27.702;153.216;2022-08-04T05:07:08;101415.43;;;21.66;27.85
73205;BME280;61413;-27.702;153.216;2022-08-04T05:09:28;101407.95;;;21.65;27.85
73205;BME280;61413;-27.702;153.216;2022-08-04T05:11:55;101399.73;;;22.11;27.86
73205;BME280;61413;-27.702;153.216;2022-08-04T05:14:15;101405.52;;;22.22;27.85
73205;BME280;61413;-27.702;153.216;2022-08-04T05:16:39;101406.75;;;22.33;27.86
73205;BME280;61413;-27.702;153.216;2022-08-04T05:19:13;101411.62;;;21.97;27.96
73205;BME280;61413;-27.702;153.216;2022-08-04T05:21:36;101404.72;;;22.26;28.05
73205;BME280;61413;-27.702;153.216;2022-08-04T05:24:01;101405.91;;;22.26;28.20
73205;BME280;61413;-27.702;153.216;2022-08-04T05:26:25;101409.45;;;22.05;28.31
73205;BME280;61413;-27.702;153.216;2022-08-04T05:28:52;101403.18;;;22.01;28.38
73205;BME280;61413;-27.702;153.216;2022-08-04T05:31:18;101399.29;;;21.65;28.55
73205;BME280;61413;-27.702;153.216;2022-08-04T05:33:46;101396.80;;;21.64;28.59
73205;BME280;61413;-27.702;153.216;2022-08-04T05:36:13;101391.14;;;22.02;28.60
73205;BME280;61413;-27.702;153.216;2022-08-04T05:38:39;101398.43;;;21.97;28.59
73205;BME280;61413;-27.702;153.216;2022-08-04T05:41:04;101396.66;;;22.11;28.56
73205;BME280;61413;-27.702;153.216;2022-08-04T05:43:31;101397.34;;;21.88;28.63
73205;BME280;61413;-27.702;153.216;2022-08-04T05:45:59;101399.97;;;21.87;28.71
73205;BME280;61413;-27.702;153.216;2022-08-04T05:48:27;101402.91;;;21.84;28.75
73205;BME280;61413;-27.702;153.216;2022-08-04T05:50:53;101403.62;;;21.84;28.76
73205;BME280;61413;-27.702;153.216;2022-08-04T05:54:56;101400.72;;;21.70;28.95
73205;BME280;61413;-27.702;153.216;2022-08-04T05:57:24;101404.88;;;21.61;28.95
73205;BME280;61413;-27.702;153.216;2022-08-04T05:59:52;101407.76;;;21.56;28.97
73205;BME280;61413;-27.702;153.216;2022-08-04T06:02:18;101406.52;;;21.60;28.95
73205;BME280;61413;-27.702;153.216;2022-08-04T06:04:44;101407.54;;;21.32;28.96
73205;BME280;61413;-27.702;153.216;2022-08-04T06:07:09;101404.70;;;21.46;28.96
73205;BME280;61413;-27.702;153.216;2022-08-04T06:09:37;101400.69;;;21.52;29.00
73205;BME280;61413;-27.702;153.216;2022-08-04T06:12:09;101399.50;;;21.54;29.01
73205;BME280;61413;-27.702;153.216;2022-08-04T06:14:36;101402.90;;;21.60;29.07
73205;BME280;61413;-27.702;153.216;2022-08-04T06:17:05;101403.02;;;21.42;29.13
73205;BME280;61413;-27.702;153.216;2022-08-04T06:19:32;101401.58;;;21.27;29.21
73205;BME280;61413;-27.702;153.216;2022-08-04T06:21:59;101395.97;;;21.17;29.25
73205;BME280;61413;-27.702;153.216;2022-08-04T06:24:26;101399.50;;;21.27;29.28
73205;BME280;61413;-27.702;153.216;2022-08-04T06:26:52;101396.91;;;21.14;29.39
73205;BME280;61413;-27.702;153.216;2022-08-04T06:29:21;101397.24;;;20.94;29.40
73205;BME280;61413;-27.702;153.216;2022-08-04T06:31:49;101393.05;;;20.99;29.49
73205;BME280;61413;-27.702;153.216;2022-08-04T06:34:17;101390.47;;;20.86;29.56
73205;BME280;61413;-27.702;153.216;2022-08-04T06:38:17;101378.76;;;20.41;29.92
73205;BME280;61413;-27.702;153.216;2022-08-04T06:40:44;101370.89;;;20.27;29.99
73205;BME280;61413;-27.702;153.216;2022-08-04T06:43:12;101370.58;;;20.32;30.05
73205;BME280;61413;-27.702;153.216;2022-08-04T06:45:40;101368.29;;;20.45;30.22
73205;BME280;61413;-27.702;153.216;2022-08-04T06:48:10;101362.49;;;20.62;30.39
73205;BME280;61413;-27.702;153.216;2022-08-04T06:50:35;101353.19;;;20.59;30.54
73205;BME280;61413;-27.702;153.216;2022-08-04T06:52:59;101349.43;;;20.44;30.69
73205;BME280;61413;-27.702;153.216;2022-08-04T06:55:27;101346.33;;;20.45;30.89
73205;BME280;61413;-27.702;153.216;2022-08-04T06:57:55;101342.38;;;20.28;31.17
73205;BME280;61413;-27.702;153.216;2022-08-04T07:00:24;101339.86;;;20.07;31.48
73205;BME280;61413;-27.702;153.216;2022-08-04T07:02:50;101341.55;;;19.89;32.02
73205;BME280;61413;-27.702;153.216;2022-08-04T07:05:15;101332.27;;;19.63;32.33
73205;BME280;61413;-27.702;153.216;2022-08-04T07:07:43;101330.92;;;19.48;32.65
73205;BME280;61413;-27.702;153.216;2022-08-04T07:10:11;101323.05;;;19.50;32.84
73205;BME280;61413;-27.702;153.216;2022-08-04T07:12:37;101321.86;;;19.26;33.06
73205;BME280;61413;-27.702;153.216;2022-08-04T07:15:02;101331.33;;;19.26;33.15
73205;BME280;61413;-27.702;153.216;2022-08-04T07:17:29;101333.95;;;18.99;33.30
73205;BME280;61413;-27.702;153.216;2022-08-04T07:19:52;101338.25;;;19.06;33.52
73205;BME280;61413;-27.702;153.216;2022-08-04T07:22:20;101336.67;;;19.27;33.63
73205;BME280;61413;-27.702;153.216;2022-08-04T07:24:47;101340.02;;;19.30;33.78
73205;BME280;61413;-27.702;153.216;2022-08-04T07:27:17;101342.54;;;19.09;33.90
73205;BME280;61413;-27.702;153.216;2022-08-04T07:29:41;101349.13;;;19.21;34.06
73205;BME280;61413;-27.702;153.216;2022-08-04T07:32:09;101348.08;;;19.30;34.14
73205;BME280;61413;-27.702;153.216;2022-08-04T07:34:38;101348.86;;;18.88;34.36
73205;BME280;61413;-27.702;153.216;2022-08-04T07:37:03;101354.34;;;19.09;34.47
73205;BME280;61413;-27.702;153.216;2022-08-04T07:55:06;101381.40;;;18.94;35.68
73205;BME280;61413;-27.702;153.216;2022-08-04T08:02:42;101379.71;;;18.50;36.02
73205;BME280;61413;-27.702;153.216;2022-08-04T08:05:07;101379.34;;;18.67;35.88
73205;BME280;61413;-27.702;153.216;2022-08-04T08:07:32;101379.12;;;18.77;35.79
73205;BME280;61413;-27.702;153.216;2022-08-04T08:09:59;101376.65;;;18.81;35.90
73205;BME280;61413;-27.702;153.216;2022-08-04T08:12:28;101375.03;;;18.56;35.95
73205;BME280;61413;-27.702;153.216;2022-08-04T08:14:55;101374.18;;;18.69;35.95
73205;BME280;61413;-27.702;153.216;2022-08-04T08:17:23;101374.56;;;18.68;35.98
73205;BME280;61413;-27.702;153.216;2022-08-04T08:19:50;101379.05;;;18.84;35.96
73205;BME280;61413;-27.702;153.216;2022-08-04T08:22:18;101381.75;;;18.73;35.96
73205;BME280;61413;-27.702;153.216;2022-08-04T08:26:27;101382.80;;;18.55;36.27
73205;BME280;61413;-27.702;153.216;2022-08-04T08:28:55;101376.68;;;18.56;36.27
73205;BME280;61413;-27.702;153.216;2022-08-04T08:31:22;101377.71;;;18.58;36.29
73205;BME280;61413;-27.702;153.216;2022-08-04T08:33:51;101378.52;;;18.75;36.43
73205;BME280;61413;-27.702;153.216;2022-08-04T08:36:22;101379.56;;;18.60;36.50
73205;BME280;61413;-27.702;153.216;2022-08-04T08:38:50;101384.39;;;18.47;36.56
73205;BME280;61413;-27.702;153.216;2022-08-04T08:41:32;101378.17;;;18.42;36.60
73205;BME280;61413;-27.702;153.216;2022-08-04T08:43:44;101377.86;;;18.34;36.68
73205;BME280;61413;-27.702;153.216;2022-08-04T08:46:33;101387.62;;;18.29;36.81
73205;BME280;61413;-27.702;153.216;2022-08-04T08:48:54;101390.66;;;18.51;36.88
73205;BME280;61413;-27.702;153.216;2022-08-04T08:52:18;101389.50;;;18.38;37.08
73205;BME280;61413;-27.702;153.216;2022-08-04T08:53:56;101395.21;;;18.38;37.24
73205;BME280;61413;-27.702;153.216;2022-08-04T08:56:10;101402.44;;;18.30;37.26
73205;BME280;61413;-27.702;153.216;2022-08-04T08:58:37;101406.28;;;18.18;37.25
73205;BME280;61413;-27.702;153.216;2022-08-04T09:00:55;101407.87;;;18.30;37.33
73205;BME280;61413;-27.702;153.216;2022-08-04T09:04:18;101409.31;;;18.39;37.43
73205;BME280;61413;-27.702;153.216;2022-08-04T09:05:52;101412.79;;;18.56;37.59
73205;BME280;61413;-27.702;153.216;2022-08-04T09:08:24;101418.83;;;18.57;37.56
73205;BME280;61413;-27.702;153.216;2022-08-04T09:10:42;101416.56;;;18.18;37.83
73205;BME280;61413;-27.702;153.216;2022-08-04T09:13:05;101419.30;;;18.12;37.93
73205;BME280;61413;-27.702;153.216;2022-08-04T09:15:38;101421.94;;;18.32;37.86
73205;BME280;61413;-27.702;153.216;2022-08-04T09:17:59;101422.24;;;18.48;37.83
73205;BME280;61413;-27.702;153.216;2022-08-04T09:20:33;101422.64;;;18.11;37.85
73205;BME280;61413;-27.702;153.216;2022-08-04T09:22:55;101421.44;;;18.12;37.87
73205;BME280;61413;-27.702;153.216;2022-08-04T09:25:22;101418.99;;;18.01;37.85
73205;BME280;61413;-27.702;153.216;2022-08-04T09:27:54;101417.86;;;18.46;37.88
73205;BME280;61413;-27.702;153.216;2022-08-04T09:30:17;101419.23;;;18.34;37.94
73205;BME280;61413;-27.702;153.216;2022-08-04T09:32:52;101423.68;;;18.20;37.97
73205;BME280;61413;-27.702;153.216;2022-08-04T09:35:18;101428.59;;;18.29;38.10
73205;BME280;61413;-27.702;153.216;2022-08-04T09:37:44;101429.90;;;18.33;38.20
73205;BME280;61413;-27.702;153.216;2022-08-04T09:40:10;101427.52;;;18.23;38.21
73205;BME280;61413;-27.702;153.216;2022-08-04T09:42:36;101427.62;;;18.31;38.28
73205;BME280;61413;-27.702;153.216;2022-08-04T09:45:02;101418.82;;;18.18;38.34
73205;BME280;61413;-27.702;153.216;2022-08-04T09:47:32;101419.50;;;18.04;38.34
73205;BME280;61413;-27.702;153.216;2022-08-04T09:49:57;101421.10;;;17.84;38.32
73205;BME280;61413;-27.702;153.216;2022-08-04T09:52:31;101420.55;;;18.35;38.30
73205;BME280;61413;-27.702;153.216;2022-08-04T09:54:50;101422.70;;;18.44;38.32
73205;BME280;61413;-27.702;153.216;2022-08-04T09:57:16;101419.17;;;18.20;38.32
73205;BME280;61413;-27.702;153.216;2022-08-04T09:59:44;101417.06;;;18.16;38.35
73205;BME280;61413;-27.702;153.216;2022-08-04T10:02:08;101420.64;;;18.16;38.37
73205;BME280;61413;-27.702;153.216;2022-08-04T10:04:34;101415.10;;;18.04;38.35
73205;BME280;61413;-27.702;153.216;2022-08-04T10:09:59;101401.60;;;18.25;38.58
73205;BME280;61413;-27.702;153.216;2022-08-04T10:12:29;101395.60;;;18.37;38.55
73205;BME280;61413;-27.702;153.216;2022-08-04T10:14:52;101395.21;;;18.07;38.51
73205;BME280;61413;-27.702;153.216;2022-08-04T10:17:25;101398.02;;;18.17;38.41
73205;BME280;61413;-27.702;153.216;2022-08-04T10:19:39;101398.22;;;18.39;38.46
73205;BME280;61413;-27.702;153.216;2022-08-04T10:22:13;101403.93;;;18.35;38.50
73205;BME280;61413;-27.702;153.216;2022-08-04T10:24:50;101399.54;;;18.23;38.55
73205;BME280;61413;-27.702;153.216;2022-08-04T10:27:00;101401.65;;;18.35;38.53
73205;BME280;61413;-27.702;153.216;2022-08-04T10:31:51;101405.31;;;18.34;38.74
73205;BME280;61413;-27.702;153.216;2022-08-04T10:36:20;101416.68;;;18.18;38.83
73205;BME280;61413;-27.702;153.216;2022-08-04T10:38:54;101414.94;;;18.14;38.74
73205;BME280;61413;-27.702;153.216;2022-08-04T10:41:16;101418.06;;;18.21;38.66
73205;BME280;61413;-27.702;153.216;2022-08-04T10:43:45;101421.53;;;18.27;38.72
73205;BME280;61413;-27.702;153.216;2022-08-04T10:46:12;101423.44;;;18.02;38.66
73205;BME280;61413;-27.702;153.216;2022-08-04T10:48:38;101421.36;;;18.13;38.64
73205;BME280;61413;-27.702;153.216;2022-08-04T10:51:05;101425.76;;;18.27;38.62
73205;BME280;61413;-27.702;153.216;2022-08-04T10:53:23;101431.75;;;18.30;38.59
73205;BME280;61413;-27.702;153.216;2022-08-04T10:55:55;101429.57;;;18.17;38.60
73205;BME280;61413;-27.702;153.216;2022-08-04T10:58:20;101431.90;;;18.49;38.59
73205;BME280;61413;-27.702;153.216;2022-08-04T11:00:43;101427.31;;;18.59;38.62
73205;BME280;61413;-27.702;153.216;2022-08-04T11:03:12;101429.79;;;18.04;38.64
73205;BME280;61413;-27.702;153.216;2022-08-04T11:05:39;101431.27;;;17.97;38.72
73205;BME280;61413;-27.702;153.216;2022-08-04T11:08:03;101432.82;;;17.97;38.76
73205;BME280;61413;-27.702;153.216;2022-08-04T11:10:32;101429.46;;;18.39;38.76
73205;BME280;61413;-27.702;153.216;2022-08-04T11:12:55;101429.50;;;18.09;38.75
73205;BME280;61413;-27.702;153.216;2022-08-04T11:15:24;101419.92;;;18.05;38.69
73205;BME280;61413;-27.702;153.216;2022-08-04T11:17:52;101422.22;;;17.96;38.74
73205;BME280;61413;-27.702;153.216;2022-08-04T11:20:24;101426.87;;;18.08;38.80
73205;BME280;61413;-27.702;153.216;2022-08-04T11:22:47;101420.45;;;17.95;38.83
73205;BME280;61413;-27.702;153.216;2022-08-04T11:25:10;101420.38;;;18.23;38.91
73205;BME280;61413;-27.702;153.216;2022-08-04T11:27:42;101422.73;;;18.19;39.02
73205;BME280;61413;-27.702;153.216;2022-08-04T11:30:06;101423.00;;;17.91;39.03
73205;BME280;61413;-27.702;153.216;2022-08-04T11:32:41;101420.24;;;17.97;39.14
73205;BME280;61413;-27.702;153.216;2022-08-04T11:35:15;101424.18;;;18.15;39.15
73205;BME280;61413;-27.702;153.216;2022-08-04T11:37:28;101419.24;;;18.12;39.26
73205;BME280;61413;-27.702;153.216;2022-08-04T11:39:52;101423.93;;;18.03;39.27
73205;BME280;61413;-27.702;153.216;2022-08-04T11:42:20;101422.56;;;17.63;39.37
73205;BME280;61413;-27.702;153.216;2022-08-04T11:44:47;101421.14;;;18.11;39.31
73205;BME280;61413;-27.702;153.216;2022-08-04T11:47:20;101415.48;;;18.31;39.37
73205;BME280;61413;-27.702;153.216;2022-08-04T11:49:39;101417.11;;;17.90;39.45
73205;BME280;61413;-27.702;153.216;2022-08-04T11:52:04;101411.32;;;18.07;39.49
73205;BME280;61413;-27.702;153.216;2022-08-04T11:54:28;101406.16;;;17.89;39.67
73205;BME280;61413;-27.702;153.216;2022-08-04T11:56:57;101405.74;;;18.06;39.61
73205;BME280;61413;-27.702;153.216;2022-08-04T11:59:24;101408.68;;;18.16;39.62
73205;BME280;61413;-27.702;153.216;2022-08-04T12:02:01;101410.17;;;17.94;39.65
73205;BME280;61413;-27.702;153.216;2022-08-04T12:04:23;101410.15;;;17.96;39.66
73205;BME280;61413;-27.702;153.216;2022-08-04T12:06:48;101402.28;;;17.74;39.79
73205;BME280;61413;-27.702;153.216;2022-08-04T12:09:16;101407.15;;;18.00;39.78
73205;BME280;61413;-27.702;153.216;2022-08-04T12:11:53;101405.99;;;18.12;39.74
73205;BME280;61413;-27.702;153.216;2022-08-04T12:14:13;101407.68;;;17.73;39.84
73205;BME280;61413;-27.702;153.216;2022-08-04T12:16:35;101408.73;;;17.91;39.90
73205;BME280;61413;-27.702;153.216;2022-08-04T12:18:57;101405.57;;;17.93;39.87
73205;BME280;61413;-27.702;153.216;2022-08-04T12:21:27;101406.93;;;18.03;39.85
73205;BME280;61413;-27.702;153.216;2022-08-04T12:23:48;101390.09;;;17.94;39.97
73205;BME280;61413;-27.702;153.216;2022-08-04T12:26:19;101394.79;;;18.01;39.99
73205;BME280;61413;-27.702;153.216;2022-08-04T12:30:02;101398.83;;;17.93;39.98
73205;BME280;61413;-27.702;153.216;2022-08-04T12:32:31;101394.87;;;17.92;39.88
73205;BME280;61413;-27.702;153.216;2022-08-04T12:35:05;101396.97;;;18.10;39.73
73205;BME280;61413;-27.702;153.216;2022-08-04T12:37:27;101392.87;;;17.90;39.66
73205;BME280;61413;-27.702;153.216;2022-08-04T12:39:46;101391.06;;;18.02;39.55
73205;BME280;61413;-27.702;153.216;2022-08-04T12:42:16;101387.39;;;17.94;39.51
73205;BME280;61413;-27.702;153.216;2022-08-04T12:44:39;101382.32;;;17.85;39.44
73205;BME280;61413;-27.702;153.216;2022-08-04T12:47:04;101380.35;;;17.89;39.34
73205;BME280;61413;-27.702;153.216;2022-08-04T12:49:29;101383.79;;;17.72;39.25
73205;BME280;61413;-27.702;153.216;2022-08-04T12:51:58;101373.77;;;18.01;39.18
73205;BME280;61413;-27.702;153.216;2022-08-04T12:54:26;101375.03;;;17.81;39.13
73205;BME280;61413;-27.702;153.216;2022-08-04T12:56:56;101373.22;;;17.97;39.12
73205;BME280;61413;-27.702;153.216;2022-08-04T13:01:30;101371.42;;;17.79;39.23
73205;BME280;61413;-27.702;153.216;2022-08-04T13:04:00;101373.58;;;17.84;39.14
73205;BME280;61413;-27.702;153.216;2022-08-04T13:06:28;101373.57;;;17.55;39.07
73205;BME280;61413;-27.702;153.216;2022-08-04T13:08:51;101373.68;;;17.89;39.00
73205;BME280;61413;-27.702;153.216;2022-08-04T13:11:21;101377.21;;;17.79;38.96
73205;BME280;61413;-27.702;153.216;2022-08-04T13:13:46;101371.80;;;17.80;38.91
73205;BME280;61413;-27.702;153.216;2022-08-04T13:16:13;101366.31;;;17.76;38.91
73205;BME280;61413;-27.702;153.216;2022-08-04T13:18:45;101357.27;;;17.87;38.87
73205;BME280;61413;-27.702;153.216;2022-08-04T13:21:25;101354.57;;;17.64;38.87